createdAt,value
2018-07-05T00:00:24.079Z,56.20
2018-07-05T00:03:28.624Z,56.10
2018-07-05T00:06:33.260Z,55.70
2018-07-05T00:09:37.504Z,55.20
2018-07-05T00:12:42.228Z,55.20
2018-07-05T00:15:46.429Z,55.50
2018-07-05T00:18:50.783Z,55.90
2018-07-05T00:21:55.340Z,56.20
2018-07-05T00:24:59.878Z,56.10
2018-07-05T00:28:04.196Z,56.40
2018-07-05T00:31:08.795Z,56.60
2018-07-05T00:34:13.159Z,56.80
2018-07-05T00:37:17.398Z,56.90
2018-07-05T00:40:22.417Z,56.50
2018-07-05T00:43:26.822Z,56.60
2018-07-05T00:46:30.992Z,56.30
2018-07-05T00:49:35.989Z,56.50
2018-07-05T00:52:40.911Z,56.10
2018-07-05T00:55:45.265Z,56.20
2018-07-05T00:58:49.464Z,56.40
2018-07-05T01:01:53.940Z,56.20
2018-07-05T01:04:59.694Z,56.20
2018-07-05T01:11:02.437Z,56.00
2018-07-05T01:14:06.740Z,55.80
2018-07-05T01:17:12.275Z,56.20
2018-07-05T01:20:16.529Z,56.10
2018-07-05T01:23:21.015Z,55.80
2018-07-05T01:26:26.344Z,55.20
2018-07-05T01:29:30.724Z,55.60
2018-07-05T01:32:35.908Z,55.20
2018-07-05T01:35:42.009Z,55.30
2018-07-05T01:38:46.553Z,55.00
2018-07-05T01:41:51.052Z,54.80
2018-07-05T01:44:55.299Z,54.60
2018-07-05T01:47:59.717Z,54.70
2018-07-05T01:51:04.066Z,54.60
2018-07-05T01:54:08.887Z,54.60
2018-07-05T01:57:13.112Z,54.60
2018-07-05T02:03:41.400Z,55.80
2018-07-05T02:06:45.525Z,55.90
2018-07-05T02:09:50.602Z,56.30
2018-07-05T02:12:54.928Z,56.00
2018-07-05T02:15:59.377Z,55.50
2018-07-05T02:19:04.230Z,54.90
2018-07-05T02:22:08.493Z,54.70
2018-07-05T02:25:13.661Z,54.70
2018-07-05T02:28:17.993Z,55.00
2018-07-05T02:31:22.183Z,55.00
2018-07-05T02:34:27.824Z,54.60
2018-07-05T02:37:37.355Z,54.70
2018-07-05T02:40:41.792Z,54.70
2018-07-05T02:43:46.189Z,54.70
2018-07-05T02:46:51.725Z,54.50
2018-07-05T02:49:56.220Z,54.60
2018-07-05T02:53:00.620Z,54.60
2018-07-05T02:56:04.884Z,54.60
2018-07-05T02:59:09.179Z,54.60
2018-07-05T03:02:13.461Z,54.60
2018-07-05T03:05:17.640Z,54.60
2018-07-05T03:08:21.925Z,54.60
2018-07-05T03:11:26.414Z,54.60
2018-07-05T03:14:31.759Z,54.60
2018-07-05T03:17:36.953Z,54.70
2018-07-05T03:20:43.374Z,54.60
2018-07-05T03:23:47.686Z,54.60
2018-07-05T03:26:53.716Z,54.70
2018-07-05T03:29:58.110Z,54.60
2018-07-05T03:33:02.285Z,54.60
2018-07-05T03:36:06.820Z,54.90
2018-07-05T03:39:11.200Z,55.10
2018-07-05T03:42:16.517Z,55.30
2018-07-05T03:45:26.345Z,55.00
2018-07-05T03:48:31.283Z,55.10
2018-07-05T03:51:37.579Z,54.70
2018-07-05T03:54:43.964Z,55.10
2018-07-05T03:57:49.292Z,54.70
2018-07-05T04:00:54.367Z,54.80
2018-07-05T04:03:58.898Z,54.90
2018-07-05T04:07:04.593Z,56.10
2018-07-05T04:10:08.900Z,54.90
2018-07-05T04:16:11.680Z,55.00
2018-07-05T04:19:15.963Z,55.00
2018-07-05T04:22:20.718Z,55.10
2018-07-05T04:25:26.430Z,55.10
2018-07-05T04:28:31.034Z,55.20
2018-07-05T04:31:36.256Z,55.20
2018-07-05T04:34:41.238Z,55.20
2018-07-05T04:37:46.243Z,55.20
2018-07-05T04:40:52.090Z,55.20
2018-07-05T04:43:57.276Z,55.20
2018-07-05T04:47:01.928Z,55.20
2018-07-05T04:50:07.735Z,55.20
2018-07-05T04:53:12.243Z,55.30
2018-07-05T04:56:17.132Z,55.30
2018-07-05T04:59:24.201Z,55.40
2018-07-05T05:02:29.648Z,55.50
2018-07-05T05:05:34.343Z,55.50
2018-07-05T05:08:40.950Z,55.60
2018-07-05T05:11:46.017Z,55.70
2018-07-05T05:14:51.215Z,55.70
2018-07-05T05:17:56.484Z,55.80
2018-07-05T05:21:03.062Z,55.80
2018-07-05T05:24:07.497Z,55.80
2018-07-05T05:27:11.856Z,55.80
2018-07-05T05:30:16.220Z,55.80
2018-07-05T05:33:21.513Z,55.90
2018-07-05T05:39:26.413Z,56.10
2018-07-05T05:42:30.791Z,56.10
2018-07-05T05:45:35.344Z,56.10
2018-07-05T05:48:41.869Z,55.80
2018-07-05T05:51:46.280Z,55.80
2018-07-05T05:54:51.564Z,56.80
2018-07-05T05:57:57.602Z,56.00
2018-07-05T06:01:01.837Z,55.40
2018-07-05T06:04:06.026Z,55.80
2018-07-05T06:07:10.418Z,55.80
2018-07-05T06:10:14.846Z,55.70
2018-07-05T06:13:20.495Z,56.30
2018-07-05T06:16:24.860Z,56.00
2018-07-05T06:19:29.232Z,55.70
2018-07-05T06:22:34.174Z,55.70
2018-07-05T06:25:39.083Z,55.80
2018-07-05T06:28:43.566Z,56.70
2018-07-05T06:34:46.554Z,55.90
2018-07-05T06:37:51.532Z,56.30
2018-07-05T06:40:56.206Z,56.90
2018-07-05T06:44:00.616Z,57.30
2018-07-05T06:47:04.865Z,57.20
2018-07-05T06:50:09.207Z,56.40
2018-07-05T06:53:13.731Z,56.50
2018-07-05T06:56:18.179Z,56.10
2018-07-05T06:59:24.149Z,56.30
2018-07-05T07:02:28.747Z,56.60
2018-07-05T07:05:34.133Z,56.00
2018-07-05T07:08:38.420Z,56.40
2018-07-05T07:11:43.797Z,56.00
2018-07-05T07:14:48.301Z,55.60
2018-07-05T07:17:53.510Z,56.30
2018-07-05T07:20:58.288Z,56.60
2018-07-05T07:24:04.104Z,56.20
2018-07-05T07:27:09.285Z,57.00
2018-07-05T07:30:15.332Z,55.30
2018-07-05T07:33:21.530Z,55.30
2018-07-05T07:36:26.232Z,53.40
2018-07-05T07:39:32.656Z,54.40
2018-07-05T07:42:18.624Z,54.30
2018-07-05T07:44:58.561Z,53.80
2018-07-05T07:47:38.265Z,54.00
2018-07-05T07:50:17.874Z,50.30
2018-07-05T07:52:58.455Z,49.10
2018-07-05T07:55:38.007Z,49.30
2018-07-05T07:58:17.992Z,47.30
2018-07-05T08:00:58.249Z,46.60
2018-07-05T08:03:39.664Z,46.70
2018-07-05T08:06:21.565Z,46.30
2018-07-05T08:09:01.381Z,45.40
2018-07-05T08:11:46.361Z,44.50
2018-07-05T08:14:27.012Z,44.90
2018-07-05T08:17:07.308Z,43.80
2018-07-05T08:19:46.920Z,43.30
2018-07-05T08:22:27.628Z,43.60
2018-07-05T08:25:07.236Z,45.20
2018-07-05T08:27:48.492Z,43.20
2018-07-05T08:30:28.437Z,43.00
2018-07-05T08:33:08.044Z,42.10
2018-07-05T08:35:47.589Z,40.80
2018-07-05T08:38:27.189Z,41.00
2018-07-05T08:41:08.091Z,41.20
2018-07-05T08:43:48.854Z,41.40
2018-07-05T08:46:28.727Z,41.70
2018-07-05T08:49:08.284Z,40.30
2018-07-05T08:51:48.322Z,40.20
2018-07-05T08:54:28.297Z,39.70
2018-07-05T08:57:07.924Z,38.90
2018-07-05T08:59:47.568Z,38.40
2018-07-05T09:05:06.939Z,39.50
2018-07-05T09:07:46.588Z,39.70
2018-07-05T09:10:26.306Z,41.50
2018-07-05T09:13:05.890Z,39.60
2018-07-05T09:15:45.435Z,40.10
2018-07-05T09:18:28.058Z,39.10
2018-07-05T09:21:09.392Z,38.80
2018-07-05T09:23:49.245Z,36.60
2018-07-05T09:26:29.117Z,35.30
2018-07-05T09:29:08.788Z,34.70
2018-07-05T09:31:49.307Z,34.40
2018-07-05T09:34:29.859Z,34.70
2018-07-05T09:37:09.372Z,36.40
2018-07-05T09:39:50.387Z,37.00
2018-07-05T09:42:30.728Z,34.80
2018-07-05T09:45:10.247Z,35.90
2018-07-05T09:47:50.458Z,35.90
2018-07-05T09:50:30.192Z,34.80
2018-07-05T09:53:10.557Z,36.90
2018-07-05T09:55:51.688Z,36.70
2018-07-05T09:58:31.173Z,36.00
2018-07-05T10:01:11.760Z,36.30
2018-07-05T10:03:51.864Z,35.30
2018-07-05T10:06:32.421Z,34.20
2018-07-05T10:09:13.524Z,36.20
2018-07-05T10:11:53.241Z,35.90
2018-07-05T10:14:32.727Z,36.50
2018-07-05T10:17:12.380Z,37.40
2018-07-05T10:19:52.116Z,34.70
2018-07-05T10:22:31.689Z,34.10
2018-07-05T10:25:11.193Z,33.90
2018-07-05T10:27:51.973Z,34.00
2018-07-05T10:30:51.919Z,34.00
2018-07-05T10:33:46.785Z,34.00
2018-07-05T10:36:26.516Z,35.20
2018-07-05T10:39:06.056Z,36.60
2018-07-05T10:42:07.141Z,36.00
2018-07-05T10:45:17.843Z,34.50
2018-07-05T10:48:24.300Z,33.90
2018-07-05T10:51:28.807Z,33.80
2018-07-05T10:54:35.195Z,33.90
2018-07-05T10:57:40.580Z,33.90
2018-07-05T11:00:45.584Z,35.20
2018-07-05T11:03:50.411Z,33.80
2018-07-05T11:06:55.080Z,33.80
2018-07-05T11:09:59.484Z,33.80
2018-07-05T11:13:03.957Z,33.90
2018-07-05T11:16:08.533Z,33.80
2018-07-05T11:19:14.671Z,33.80
2018-07-05T11:22:20.417Z,33.60
2018-07-05T11:25:25.653Z,34.90
2018-07-05T11:28:31.112Z,33.70
2018-07-05T11:31:38.918Z,33.80
2018-07-05T11:34:43.457Z,33.80
2018-07-05T11:37:48.573Z,33.70
2018-07-05T11:40:53.250Z,33.70
2018-07-05T11:43:57.762Z,33.70
2018-07-05T11:50:02.948Z,33.60
2018-07-05T11:53:07.422Z,33.70
2018-07-05T11:56:11.736Z,33.70
2018-07-05T11:59:16.041Z,33.70
2018-07-05T12:02:21.240Z,33.80
2018-07-05T12:05:26.396Z,33.80
2018-07-05T12:08:31.691Z,33.80
2018-07-05T12:11:36.799Z,33.80
2018-07-05T12:14:41.166Z,33.80
2018-07-05T12:17:45.636Z,33.80
2018-07-05T12:20:50.696Z,33.70
2018-07-05T12:23:56.197Z,33.60
2018-07-05T12:27:01.085Z,33.60
2018-07-05T12:30:05.989Z,33.60
2018-07-05T12:33:10.519Z,33.60
2018-07-05T12:36:15.277Z,33.60
2018-07-05T12:39:20.422Z,33.80
2018-07-05T12:42:27.067Z,33.70
2018-07-05T12:45:31.400Z,33.70
2018-07-05T12:48:35.825Z,33.70
2018-07-05T12:51:40.304Z,33.60
2018-07-05T12:54:46.591Z,33.60
2018-07-05T12:57:53.692Z,34.80
2018-07-05T13:00:57.816Z,34.70
2018-07-05T13:04:02.227Z,34.40
2018-07-05T13:07:06.668Z,33.60
2018-07-05T13:10:12.206Z,33.60
2018-07-05T13:16:14.964Z,33.60
2018-07-05T13:19:20.286Z,33.80
2018-07-05T13:22:24.914Z,33.60
2018-07-05T13:25:29.413Z,33.60
2018-07-05T13:28:34.217Z,33.70
2018-07-05T13:31:38.730Z,33.60
2018-07-05T13:34:43.045Z,33.60
2018-07-05T13:37:47.428Z,33.60
2018-07-05T13:40:56.894Z,34.30
2018-07-05T13:44:02.116Z,34.30
2018-07-05T13:47:08.918Z,33.60
2018-07-05T13:50:16.111Z,34.00
2018-07-05T13:53:21.355Z,33.60
2018-07-05T13:56:26.064Z,33.80
2018-07-05T13:59:31.036Z,33.60
2018-07-05T14:02:37.574Z,33.80
2018-07-05T14:05:43.527Z,34.60
2018-07-05T14:08:48.444Z,35.00
2018-07-05T14:11:54.589Z,34.00
2018-07-05T14:14:59.188Z,33.60
2018-07-05T14:18:03.995Z,33.60
2018-07-05T14:21:08.674Z,33.70
2018-07-05T14:24:13.417Z,34.60
2018-07-05T14:27:17.884Z,34.90
2018-07-05T14:30:24.075Z,36.10
2018-07-05T14:33:28.576Z,35.30
2018-07-05T14:36:33.049Z,34.50
2018-07-05T14:39:37.988Z,34.80
2018-07-05T14:42:43.410Z,35.10
2018-07-05T14:45:47.966Z,34.80
2018-07-05T14:48:54.392Z,34.20
2018-07-05T14:51:59.677Z,33.60
2018-07-05T14:55:04.104Z,33.60
2018-07-05T14:58:08.824Z,33.80
2018-07-05T15:01:14.024Z,33.90
2018-07-05T15:04:19.013Z,33.80
2018-07-05T15:07:24.384Z,33.60
2018-07-05T15:10:31.400Z,34.20
2018-07-05T15:13:35.872Z,35.60
2018-07-05T15:16:41.099Z,34.10
2018-07-05T15:19:50.443Z,35.60
2018-07-05T15:22:56.924Z,35.00
2018-07-05T15:26:01.226Z,35.10
2018-07-05T15:29:06.779Z,33.80
2018-07-05T15:32:11.295Z,34.80
2018-07-05T15:35:15.762Z,35.60
2018-07-05T15:38:20.525Z,36.00
2018-07-05T15:41:24.900Z,35.40
2018-07-05T15:44:30.366Z,35.20
2018-07-05T15:47:34.751Z,33.60
2018-07-05T15:50:41.101Z,34.50
2018-07-05T15:53:45.581Z,33.80
2018-07-05T15:56:50.348Z,34.30
2018-07-05T15:59:54.861Z,35.50
2018-07-05T16:03:01.700Z,35.20
2018-07-05T16:06:08.221Z,35.50
2018-07-05T16:09:13.032Z,36.80
2018-07-05T16:12:17.697Z,35.90
2018-07-05T16:15:22.355Z,35.40
2018-07-05T16:18:26.823Z,35.20
2018-07-05T16:21:31.381Z,36.30
2018-07-05T16:24:36.651Z,35.10
2018-07-05T16:27:42.388Z,36.20
2018-07-05T16:30:48.624Z,36.30
2018-07-05T16:33:55.281Z,35.20
2018-07-05T16:36:59.790Z,34.70
2018-07-05T16:40:05.760Z,35.20
2018-07-05T16:43:11.197Z,36.10
2018-07-05T16:46:15.724Z,36.00
2018-07-05T16:49:22.102Z,36.70
2018-07-05T16:52:27.564Z,36.80
2018-07-05T16:58:30.493Z,36.80
2018-07-05T17:01:34.919Z,37.00
2018-07-05T17:04:40.279Z,36.90
2018-07-05T17:07:45.776Z,37.30
2018-07-05T17:10:51.801Z,37.10
2018-07-05T17:14:04.051Z,37.50
2018-07-05T17:17:09.280Z,37.40
2018-07-05T17:20:15.331Z,37.50
2018-07-05T17:23:21.035Z,36.70
2018-07-05T17:26:28.228Z,37.20
2018-07-05T17:29:32.873Z,37.50
2018-07-05T17:32:38.419Z,37.70
2018-07-05T17:38:41.295Z,38.80
2018-07-05T17:41:47.987Z,39.80
2018-07-05T17:44:54.558Z,41.60
2018-07-05T17:48:03.216Z,43.00
2018-07-05T17:51:07.619Z,45.30
2018-07-05T17:54:11.977Z,46.30
2018-07-05T17:57:16.452Z,46.40
2018-07-05T18:00:24.035Z,47.20
2018-07-05T18:03:29.438Z,48.30
2018-07-05T18:06:35.502Z,48.80
2018-07-05T18:09:42.030Z,49.30
2018-07-05T18:12:46.914Z,49.90
2018-07-05T18:15:51.678Z,50.10
2018-07-05T18:18:56.286Z,49.90
2018-07-05T18:22:01.259Z,49.80
2018-07-05T18:25:09.764Z,48.80
2018-07-05T18:28:14.346Z,50.00
2018-07-05T18:31:18.807Z,49.70
2018-07-05T18:34:24.762Z,50.00
2018-07-05T18:37:29.293Z,50.00
2018-07-05T18:40:34.139Z,49.80
2018-07-05T18:43:39.615Z,50.20
2018-07-05T18:46:44.300Z,49.70
2018-07-05T18:49:51.540Z,50.00
2018-07-05T18:52:59.787Z,48.40
2018-07-05T18:56:06.056Z,47.70
2018-07-05T18:59:12.625Z,48.30
2018-07-05T19:02:17.602Z,48.70
2018-07-05T19:05:22.439Z,49.10
2018-07-05T19:08:33.283Z,48.70
2018-07-05T19:11:37.664Z,47.90
2018-07-05T19:14:43.277Z,48.30
2018-07-05T19:17:47.921Z,48.50
2018-07-05T19:20:55.284Z,48.90
2018-07-05T19:24:03.731Z,49.00
2018-07-05T19:27:09.214Z,49.90
2018-07-05T19:30:18.146Z,48.90
2018-07-05T19:33:28.862Z,48.40
2018-07-05T19:36:35.491Z,48.10
2018-07-05T19:39:40.965Z,48.80
2018-07-05T19:42:46.126Z,49.20
2018-07-05T19:45:51.129Z,49.70
2018-07-05T19:48:55.471Z,49.90
2018-07-05T19:52:03.457Z,49.90
2018-07-05T19:55:08.223Z,50.00
2018-07-05T19:58:12.668Z,50.00
2018-07-05T20:01:16.968Z,49.80
2018-07-05T20:04:22.693Z,49.70
2018-07-05T20:07:28.045Z,48.90
2018-07-05T20:10:32.852Z,48.60
2018-07-05T20:13:39.597Z,48.50
2018-07-05T20:16:44.924Z,48.30
2018-07-05T20:19:53.941Z,48.60
2018-07-05T20:22:58.921Z,48.80
2018-07-05T20:26:03.238Z,48.40
2018-07-05T20:29:07.856Z,48.40
2018-07-05T20:32:14.356Z,48.60
2018-07-05T20:35:19.090Z,48.40
2018-07-05T20:38:25.743Z,48.60
2018-07-05T20:41:31.257Z,50.30
2018-07-05T20:44:35.796Z,50.70
2018-07-05T20:47:41.557Z,50.50
2018-07-05T20:50:45.943Z,49.60
2018-07-05T20:53:56.552Z,50.00
2018-07-05T21:00:01.118Z,49.70
2018-07-05T21:03:07.804Z,49.40
2018-07-05T21:06:12.102Z,49.70
2018-07-05T21:09:18.037Z,50.70
2018-07-05T21:12:22.995Z,51.00
2018-07-05T21:15:28.708Z,50.40
2018-07-05T21:18:38.755Z,50.10
2018-07-05T21:21:43.860Z,50.10
2018-07-05T21:24:49.312Z,51.80
2018-07-05T21:27:54.952Z,50.70
2018-07-05T21:31:00.281Z,51.30
2018-07-05T21:34:04.785Z,51.40
2018-07-05T21:37:09.341Z,51.60
2018-07-05T21:40:14.980Z,52.20
2018-07-05T21:43:19.320Z,52.10
2018-07-05T21:46:23.993Z,53.60
2018-07-05T21:49:37.251Z,52.80
2018-07-05T21:52:42.272Z,53.10
2018-07-05T21:55:46.617Z,53.00
2018-07-05T21:58:51.360Z,52.80
2018-07-05T22:01:55.783Z,53.30
2018-07-05T22:05:04.050Z,53.30
2018-07-05T22:08:08.703Z,53.30
2018-07-05T22:11:15.009Z,53.40
2018-07-05T22:14:21.366Z,53.40
2018-07-05T22:17:31.140Z,53.50
2018-07-05T22:20:41.557Z,53.10
2018-07-05T22:23:52.938Z,53.30
2018-07-05T22:26:57.265Z,53.50
2018-07-05T22:30:07.144Z,52.90
2018-07-05T22:33:11.853Z,53.30
2018-07-05T22:36:18.019Z,53.20
2018-07-05T22:39:22.481Z,53.20
2018-07-05T22:42:27.005Z,53.20
2018-07-05T22:45:31.444Z,53.10
2018-07-05T22:48:35.797Z,53.00
2018-07-05T22:51:41.292Z,53.00
2018-07-05T22:54:45.872Z,53.20
2018-07-05T22:57:50.093Z,53.40
2018-07-05T23:00:57.029Z,53.50
2018-07-05T23:04:02.453Z,53.30
2018-07-05T23:07:06.827Z,53.40
2018-07-05T23:10:13.082Z,53.50
2018-07-05T23:13:18.737Z,53.50
2018-07-05T23:16:24.136Z,53.50
2018-07-05T23:19:29.932Z,53.80
2018-07-05T23:22:35.774Z,54.10
2018-07-05T23:25:40.141Z,54.20
2018-07-05T23:28:45.853Z,54.00
2018-07-05T23:31:51.831Z,54.60
2018-07-05T23:34:56.870Z,54.60
2018-07-05T23:38:01.324Z,55.00
2018-07-05T23:41:05.968Z,54.70
2018-07-05T23:44:11.320Z,55.70
2018-07-05T23:47:16.249Z,54.60
2018-07-05T23:50:22.271Z,54.70
2018-07-05T23:53:27.220Z,55.20
2018-07-05T23:56:32.572Z,55.50
2018-07-05T23:59:37.474Z,55.00
